Time;durP1;ratioP1;P1;durP2;ratioP2;P2;SDS_P1;SDS_P2;PMS_P1;PMS_P2;Temp;Humidity;BMP_temperature;BMP_pressure;BME280_temperature;BME280_humidity;BME280_pressure;Samples;Min_cycle;Max_cycle;Signal;HPM_P1;HPM_P2
2022/06/19 00:00:42;;;;;;;9.93;1.92;;;;;;;19.32;76.87;100753.97;5234415;28;20021;-69
2022/06/19 00:03:23;;;;;;;9.23;2.40;;;;;;;19.42;76.11;100753.63;5232670;28;20047;-70
2022/06/19 00:05:54;;;;;;;6.97;2.10;;;;;;;19.26;77.08;100751.25;5232091;28;20578;-69
2022/06/19 00:08:27;;;;;;;10.27;2.30;;;;;;;19.09;76.78;100759.47;5232726;28;20057;-69
2022/06/19 00:10:59;;;;;;;;;;;;;;;19.65;73.51;100756.94;5236215;28;20071;-69
2022/06/19 00:13:31;;;;;;;8.20;2.13;;;;;;;18.98;76.90;100746.66;5236050;28;19913;-69
2022/06/19 00:16:02;;;;;;;8.90;1.90;;;;;;;19.00;76.54;100747.28;5229854;28;20052;-69
2022/06/19 00:18:34;;;;;;;5.87;2.20;;;;;;;18.94;77.09;100751.53;5233873;28;20065;-69
2022/06/19 00:21:08;;;;;;;6.90;1.88;;;;;;;18.86;77.68;100745.50;5232983;28;20041;-69
2022/06/19 00:23:39;;;;;;;10.90;2.00;;;;;;;18.84;77.54;100747.53;5235872;28;20061;-69
2022/06/19 00:26:12;;;;;;;9.80;2.40;;;;;;;18.79;77.50;100756.06;5234881;28;20590;-70
2022/06/19 00:28:46;;;;;;;10.00;2.70;;;;;;;18.71;77.30;100761.44;5234379;28;20416;-69
2022/06/19 00:31:17;;;;;;;6.13;1.95;;;;;;;18.68;77.74;100773.25;5233376;28;20400;-69
2022/06/19 00:33:49;;;;;;;8.20;2.17;;;;;;;18.68;77.81;100783.84;5234830;28;20030;-69
2022/06/19 00:36:21;;;;;;;7.27;2.50;;;;;;;18.70;77.71;100781.84;5234784;28;20689;-69
2022/06/19 00:38:53;;;;;;;8.95;2.28;;;;;;;18.63;78.04;100774.78;5232935;28;20076;-69
2022/06/19 00:41:25;;;;;;;9.35;2.65;;;;;;;18.57;77.98;100781.66;5233331;28;20029;-70
2022/06/19 00:44:05;;;;;;;10.27;2.80;;;;;;;18.62;77.36;100779.28;5235294;28;20037;-69
2022/06/19 00:46:50;;;;;;;10.73;2.50;;;;;;;18.40;77.73;100774.88;5234041;28;20025;-69
2022/06/19 00:49:34;;;;;;;6.88;2.10;;;;;;;18.47;76.22;100775.81;5232959;28;20073;-69
2022/06/19 00:52:14;;;;;;;8.45;2.17;;;;;;;18.40;76.90;100775.69;5232962;28;20025;-69
2022/06/19 00:54:57;;;;;;;6.72;1.98;;;;;;;18.30;76.22;100763.75;5232124;28;20033;-69
2022/06/19 00:57:32;;;;;;;10.57;2.30;;;;;;;18.05;74.68;100787.84;5235806;28;20021;-69
2022/06/19 01:00:15;;;;;;;8.60;2.10;;;;;;;18.09;74.99;100778.53;5231757;28;20441;-69
2022/06/19 01:02:47;;;;;;;;;;;;;;;18.47;72.04;100776.63;5234014;28;20029;-69
2022/06/19 01:05:18;;;;;;;8.05;2.58;;;;;;;17.93;73.85;100771.56;5233684;28;20093;-69
2022/06/19 01:07:51;;;;;;;6.90;2.10;;;;;;;17.75;73.70;100763.91;5231880;28;20030;-69
2022/06/19 01:10:23;;;;;;;8.98;2.60;;;;;;;17.67;73.21;100758.66;5234011;28;20022;-69
2022/06/19 01:12:56;;;;;;;10.38;2.70;;;;;;;17.69;73.29;100761.97;5231838;28;20460;-69
2022/06/19 01:15:27;;;;;;;9.98;2.78;;;;;;;17.65;72.24;100779.22;5234212;28;20040;-69
2022/06/19 01:18:03;;;;;;;5.82;2.03;;;;;;;17.69;72.21;100848.56;5229223;28;20041;-69
2022/06/19 01:20:36;;;;;;;10.02;2.70;;;;;;;17.47;72.21;100929.69;5234409;28;20476;-69
2022/06/19 01:23:32;;;;;;;12.30;2.75;;;;;;;17.68;71.54;100929.88;5232821;28;20423;-69
2022/06/19 01:26:04;;;;;;;8.80;2.55;;;;;;;17.36;73.05;100847.97;5230423;28;20046;-69
2022/06/19 01:28:55;;;;;;;11.97;2.70;;;;;;;17.34;72.50;100831.41;5231540;28;20702;-69
2022/06/19 01:31:29;;;;;;;8.15;2.15;;;;;;;17.39;70.55;100892.66;5233356;28;20281;-69
2022/06/19 01:34:31;;;;;;;9.18;2.53;;;;;;;17.28;69.18;100909.75;5232973;28;20469;-69
2022/06/19 01:37:07;;;;;;;12.73;2.42;;;;;;;17.03;69.72;100853.41;5233435;28;20060;-69
2022/06/19 01:39:46;;;;;;;10.80;2.28;;;;;;;17.07;68.10;100864.47;5232150;28;20095;-68
2022/06/19 01:42:18;;;;;;;15.20;2.47;;;;;;;16.86;67.23;100910.88;5217264;28;20022;-69
2022/06/19 01:44:53;;;;;;;8.00;2.23;;;;;;;16.85;68.31;100914.50;5229546;28;20444;-70
2022/06/19 01:47:25;;;;;;;13.88;2.40;;;;;;;16.80;68.53;100871.03;5232312;28;20037;-69
2022/06/19 01:49:59;;;;;;;10.23;2.13;;;;;;;16.78;67.41;100887.06;5214214;28;20029;-69
2022/06/19 01:52:30;;;;;;;9.85;2.35;;;;;;;16.66;66.92;100899.78;5233556;28;20675;-69
2022/06/19 01:55:13;;;;;;;14.25;2.95;;;;;;;16.78;65.87;100872.03;5232392;28;20029;-69
2022/06/19 01:57:49;;;;;;;9.03;2.57;;;;;;;16.67;65.38;100905.94;5231675;28;20090;-69
2022/06/19 02:00:24;;;;;;;12.38;2.92;;;;;;;16.61;64.73;100906.59;5228439;28;20025;-69
2022/06/19 02:03:06;;;;;;;17.17;3.05;;;;;;;16.59;63.51;100906.75;5230489;28;20033;-69
2022/06/19 02:05:39;;;;;;;19.02;3.47;;;;;;;16.39;62.57;100913.38;5232052;28;20025;-69
2022/06/19 02:08:12;;;;;;;;;;;;;;;16.87;61.12;100924.94;5230025;28;20500;-69
2022/06/19 02:10:46;;;;;;;13.07;2.58;;;;;;;16.44;59.68;100903.97;5229103;28;20388;-68
2022/06/19 02:13:20;;;;;;;22.60;3.30;;;;;;;16.36;59.49;100900.50;5231336;28;20021;-69
2022/06/19 02:15:53;;;;;;;11.57;2.67;;;;;;;16.30;59.88;100900.19;5228995;28;20033;-69
2022/06/19 02:18:31;;;;;;;11.75;2.47;;;;;;;16.38;59.68;100888.78;5225965;28;20124;-69
2022/06/19 02:21:05;;;;;;;8.90;2.28;;;;;;;16.30;59.40;100902.81;5227604;28;20018;-69
2022/06/19 02:23:38;;;;;;;7.90;1.60;;;;;;;16.24;58.79;100900.81;5232913;28;20029;-69
2022/06/19 02:26:10;;;;;;;12.50;3.22;;;;;;;16.24;58.91;100903.47;5231571;28;20091;-69
2022/06/19 02:28:46;;;;;;;8.18;2.47;;;;;;;16.22;59.15;100905.47;5232646;28;20033;-69
2022/06/19 02:31:20;;;;;;;12.65;3.38;;;;;;;16.22;59.12;100915.22;5228443;28;20044;-71
2022/06/19 02:33:55;;;;;;;11.32;2.33;;;;;;;16.22;59.31;100913.41;5231005;28;20112;-69
2022/06/19 02:36:41;;;;;;;9.52;2.45;;;;;;;16.28;58.63;100910.06;5230233;28;20033;-69
2022/06/19 02:39:32;;;;;;;8.90;2.33;;;;;;;16.49;59.51;100920.16;5233278;28;20083;-69
2022/06/19 02:42:22;;;;;;;7.82;1.70;;;;;;;16.28;58.14;100923.28;5227127;28;20116;-69
2022/06/19 02:45:01;;;;;;;11.15;2.05;;;;;;;16.40;58.58;100929.09;5229952;28;20080;-69
2022/06/19 02:47:35;;;;;;;9.75;2.10;;;;;;;16.30;57.64;100918.69;5229563;28;20064;-69
2022/06/19 02:50:08;;;;;;;11.48;2.33;;;;;;;16.28;57.81;100903.97;5232071;28;20113;-69
2022/06/19 02:52:40;;;;;;;8.05;1.48;;;;;;;16.27;55.92;100892.56;5231924;28;20410;-69
2022/06/19 02:55:12;;;;;;;9.05;2.22;;;;;;;16.29;55.73;100906.47;5232499;28;20025;-69
2022/06/19 02:57:45;;;;;;;9.20;1.58;;;;;;;16.25;55.44;100949.22;5230971;28;20036;-68
2022/06/19 03:00:20;;;;;;;7.25;1.88;;;;;;;16.25;56.16;101012.69;5230076;28;20167;-69
2022/06/19 03:02:56;;;;;;;9.25;2.50;;;;;;;16.22;55.88;101013.03;5232237;28;20480;-68
2022/06/19 03:05:29;;;;;;;4.70;1.83;;;;;;;16.19;54.81;100974.53;5229267;28;20025;-69
2022/06/19 03:08:00;;;;;;;8.63;2.05;;;;;;;16.12;55.48;100940.97;5229210;28;20165;-69
2022/06/19 03:10:31;;;;;;;12.60;1.90;;;;;;;16.11;55.01;100934.88;5231192;28;20064;-69
2022/06/19 03:13:02;;;;;;;7.82;1.70;;;;;;;16.12;54.61;100943.63;5233873;28;20092;-69
2022/06/19 03:15:34;;;;;;;8.45;1.58;;;;;;;16.04;54.05;100939.97;5231728;28;20031;-68
2022/06/19 03:18:05;;;;;;;12.45;1.88;;;;;;;16.08;54.16;100924.63;5227918;28;20056;-69
2022/06/19 03:20:37;;;;;;;12.80;1.52;;;;;;;16.11;54.17;100903.16;5229761;28;20021;-68
2022/06/19 03:23:09;;;;;;;9.45;2.05;;;;;;;16.01;53.59;100879.50;5231366;28;20076;-69
2022/06/19 03:25:40;;;;;;;7.03;1.85;;;;;;;15.99;53.62;100884.16;5230404;28;20121;-69
2022/06/19 03:28:11;;;;;;;7.25;1.60;;;;;;;15.99;53.16;100904.47;5231924;28;20119;-69
2022/06/19 03:30:43;;;;;;;6.68;1.80;;;;;;;15.99;52.33;100917.69;5233556;28;20029;-68
2022/06/19 03:33:14;;;;;;;4.05;1.27;;;;;;;16.03;53.26;100906.63;5234913;28;20036;-69
2022/06/19 03:35:45;;;;;;;10.60;1.70;;;;;;;15.96;52.62;100902.16;5232540;28;20144;-68
2022/06/19 03:38:17;;;;;;;7.97;1.45;;;;;;;15.96;52.13;100889.75;5234527;28;20021;-69
2022/06/19 03:40:49;;;;;;;7.45;1.20;;;;;;;15.92;52.61;100898.19;5235393;28;20365;-68
2022/06/19 03:43:20;;;;;;;7.22;1.27;;;;;;;15.94;52.90;100880.34;5235636;28;20044;-69
2022/06/19 03:45:58;;;;;;;6.18;1.27;;;;;;;15.95;53.68;100830.00;5235637;28;20029;-68
2022/06/19 03:48:29;;;;;;;9.40;1.00;;;;;;;15.90;53.41;100853.41;5234175;28;20134;-69
2022/06/19 03:51:00;;;;;;;4.57;1.00;;;;;;;15.91;53.01;100883.31;5235025;28;20060;-68
2022/06/19 03:53:32;;;;;;;7.32;1.13;;;;;;;15.89;53.42;100946.88;5232007;28;20038;-69
2022/06/19 03:56:05;;;;;;;8.13;1.45;;;;;;;15.92;53.91;101006.53;5236396;28;20073;-68
2022/06/19 03:58:45;;;;;;;;;;;;;;;16.38;52.35;101001.66;5234498;28;20619;-69
2022/06/19 04:01:39;;;;;;;4.60;1.17;;;;;;;16.08;52.96;100892.91;5229115;28;19968;-69
2022/06/19 04:04:11;;;;;;;5.45;1.40;;;;;;;15.96;50.68;100916.19;5233527;28;20022;-69
2022/06/19 04:06:42;;;;;;;5.53;1.10;;;;;;;15.88;50.20;100907.44;5230196;28;20550;-68
2022/06/19 04:09:16;;;;;;;6.13;1.17;;;;;;;15.91;49.64;100896.50;5232449;28;20386;-68
2022/06/19 04:11:47;;;;;;;6.43;0.90;;;;;;;15.81;48.93;100867.63;5234075;28;20030;-69
2022/06/19 04:14:19;;;;;;;7.47;1.00;;;;;;;15.86;49.60;100852.09;5232445;28;20107;-69
2022/06/19 04:16:50;;;;;;;5.90;1.15;;;;;;;15.87;49.47;100810.66;5231630;28;20033;-69
2022/06/19 04:19:21;;;;;;;6.28;1.30;;;;;;;15.82;49.84;100788.19;5234495;28;20032;-68
2022/06/19 04:21:53;;;;;;;6.97;1.25;;;;;;;15.88;50.28;100775.34;5234377;28;20033;-68
2022/06/19 04:24:24;;;;;;;8.65;1.10;;;;;;;15.90;50.30;100752.19;5233465;28;20030;-68
2022/06/19 04:26:56;;;;;;;8.02;1.13;;;;;;;15.90;51.00;100736.34;5232016;28;20608;-69
2022/06/19 04:29:27;;;;;;;6.45;1.08;;;;;;;15.90;51.27;100733.72;5234581;28;20032;-69
2022/06/19 04:31:58;;;;;;;4.80;1.20;;;;;;;15.97;51.73;100738.16;5232307;28;20188;-69
2022/06/19 04:34:30;;;;;;;5.35;1.70;;;;;;;15.93;51.71;100734.19;5234027;28;20026;-68
2022/06/19 04:37:01;;;;;;;11.35;1.70;;;;;;;16.03;52.63;100737.50;5235504;28;20022;-68
2022/06/19 04:39:33;;;;;;;7.88;1.52;;;;;;;16.10;52.89;100728.88;5233416;28;20117;-68
2022/06/19 04:42:06;;;;;;;10.43;1.40;;;;;;;16.07;52.84;100742.44;5233847;28;20404;-69
2022/06/19 04:44:37;;;;;;;9.25;1.38;;;;;;;16.13;53.75;100737.28;5230012;28;20053;-68
2022/06/19 04:47:09;;;;;;;7.47;1.60;;;;;;;16.07;53.64;100732.69;5235095;28;21029;-68
2022/06/19 04:49:40;;;;;;;8.73;1.30;;;;;;;16.13;54.01;100708.22;5232372;28;20506;-68
2022/06/19 04:52:11;;;;;;;10.18;1.48;;;;;;;16.16;54.45;100684.09;5235649;28;20033;-69
2022/06/19 04:54:44;;;;;;;6.88;1.65;;;;;;;16.21;55.08;100675.66;5234205;28;20017;-69
2022/06/19 04:57:15;;;;;;;6.55;1.25;;;;;;;16.22;54.81;100674.69;5234040;28;20061;-69
2022/06/19 04:59:46;;;;;;;9.00;1.67;;;;;;;16.21;55.39;100675.66;5231982;28;20114;-69
2022/06/19 05:02:18;;;;;;;4.63;1.45;;;;;;;16.25;56.14;100672.50;5232677;28;20033;-69
2022/06/19 05:04:49;;;;;;;9.48;1.60;;;;;;;16.27;54.48;100704.88;5231014;28;20079;-69
2022/06/19 05:07:21;;;;;;;6.97;1.88;;;;;;;16.29;54.55;100715.28;5234367;28;20036;-69
2022/06/19 05:09:52;;;;;;;6.20;1.65;;;;;;;16.35;54.97;100759.53;5233516;28;20033;-68
2022/06/19 05:12:24;;;;;;;6.95;1.95;;;;;;;16.42;55.82;100762.34;5214347;28;20025;-69
2022/06/19 05:14:55;;;;;;;7.68;1.30;;;;;;;16.39;54.93;100754.75;5229259;28;20079;-69
2022/06/19 05:17:26;;;;;;;6.05;1.33;;;;;;;16.48;55.23;100737.88;5225833;28;20052;-70
2022/06/19 05:19:58;;;;;;;11.50;1.75;;;;;;;16.49;55.32;100744.78;5231770;28;20060;-69
2022/06/19 05:22:31;;;;;;;5.43;1.60;;;;;;;16.51;54.92;100758.66;5231846;28;20021;-69
2022/06/19 05:25:04;;;;;;;7.13;2.05;;;;;;;16.65;55.20;100767.72;5232169;28;20790;-69
2022/06/19 05:27:40;;;;;;;5.00;1.17;;;;;;;16.67;54.54;100789.53;5229008;28;20029;-69
2022/06/19 05:30:13;;;;;;;5.13;1.27;;;;;;;16.76;55.49;100807.88;5233156;28;20026;-69
2022/06/19 05:32:44;;;;;;;8.70;1.60;;;;;;;16.84;54.44;100814.94;5230260;28;20507;-70
2022/06/19 05:35:15;;;;;;;6.38;1.50;;;;;;;16.95;55.43;100843.69;5233352;28;20025;-69
2022/06/19 05:37:47;;;;;;;6.03;1.52;;;;;;;17.00;55.08;100864.34;5233207;28;20043;-69
2022/06/19 05:40:18;;;;;;;6.65;1.50;;;;;;;17.01;54.00;100869.47;5232486;28;20516;-69
2022/06/19 05:42:49;;;;;;;8.00;1.60;;;;;;;17.02;54.79;100859.72;5231341;28;20040;-69
2022/06/19 05:45:21;;;;;;;7.22;1.60;;;;;;;17.32;55.13;100887.22;5216095;28;20033;-69
2022/06/19 05:47:52;;;;;;;7.05;1.30;;;;;;;17.46;55.14;100877.69;5231151;28;20039;-68
2022/06/19 05:50:23;;;;;;;6.25;1.75;;;;;;;17.51;55.73;100870.06;5233758;28;20511;-69
2022/06/19 05:52:54;;;;;;;6.28;1.40;;;;;;;17.51;54.35;100857.63;5230141;28;20034;-70
2022/06/19 05:55:26;;;;;;;6.00;1.38;;;;;;;17.58;54.36;100876.31;5227841;28;20061;-67
2022/06/19 05:57:57;;;;;;;5.50;1.25;;;;;;;17.65;53.73;100917.00;5215574;28;20084;-70
2022/06/19 06:00:29;;;;;;;7.68;1.98;;;;;;;17.49;54.93;100891.41;5217032;28;20017;-68
2022/06/19 06:03:01;;;;;;;5.13;1.45;;;;;;;17.56;53.09;100920.69;5221702;28;20026;-71
2022/06/19 06:05:32;;;;;;;7.68;1.55;;;;;;;17.49;55.45;100925.84;5228020;28;20036;-68
2022/06/19 06:08:05;;;;;;;10.25;1.58;;;;;;;17.49;56.09;100925.00;5228718;28;20021;-70
2022/06/19 06:10:36;;;;;;;8.43;1.83;;;;;;;17.54;56.84;100948.34;5232088;28;20048;-67
2022/06/19 06:13:08;;;;;;;8.43;1.80;;;;;;;17.46;55.82;100979.19;5228715;28;20021;-68
2022/06/19 06:15:39;;;;;;;8.60;1.75;;;;;;;17.38;54.28;100983.66;5225903;28;20116;-68
2022/06/19 06:18:11;;;;;;;6.72;1.38;;;;;;;17.38;54.96;100976.53;5225464;28;20756;-71
2022/06/19 06:20:43;;;;;;;7.43;1.63;;;;;;;17.33;55.58;100957.69;5227561;28;20108;-69
2022/06/19 06:23:14;;;;;;;9.68;1.90;;;;;;;17.27;57.57;101021.91;5227812;28;20100;-68
2022/06/19 06:25:45;;;;;;;7.90;1.70;;;;;;;17.31;58.63;101059.50;5229682;28;20029;-68
2022/06/19 06:28:16;;;;;;;9.10;1.80;;;;;;;17.32;59.03;101071.75;5227020;28;20021;-69
2022/06/19 06:30:48;;;;;;;6.63;1.48;;;;;;;17.32;59.25;101075.22;5225057;28;20284;-70
2022/06/19 06:33:19;;;;;;;9.95;2.30;;;;;;;17.22;62.61;101122.22;5229359;28;20038;-69
2022/06/19 06:35:51;;;;;;;7.33;1.93;;;;;;;17.04;72.14;101175.34;5226830;28;20026;-69
2022/06/19 06:38:23;;;;;;;6.78;1.92;;;;;;;16.96;72.58;101201.81;5221966;28;20716;-69
2022/06/19 06:40:55;;;;;;;10.18;1.80;;;;;;;16.82;73.07;101192.69;5225999;28;20025;-70
2022/06/19 06:43:27;;;;;;;4.72;1.48;;;;;;;16.85;74.22;101199.47;5221319;28;20040;-69
2022/06/19 06:46:07;;;;;;;11.25;2.03;;;;;;;16.89;75.06;101198.97;5223506;28;20669;-69
2022/06/19 06:48:39;;;;;;;9.05;2.67;;;;;;;16.71;77.50;101198.25;5228064;28;20109;-69
2022/06/19 06:51:13;;;;;;;8.38;1.65;;;;;;;16.71;74.25;101185.84;5226186;28;20083;-70
2022/06/19 06:53:44;;;;;;;7.35;1.63;;;;;;;16.76;74.40;101173.00;5227832;28;20038;-70
2022/06/19 06:56:16;;;;;;;7.10;1.63;;;;;;;16.77;75.53;101169.34;5229318;28;20492;-69
2022/06/19 06:58:48;;;;;;;8.15;1.75;;;;;;;16.94;73.80;101167.56;5230788;28;20040;-70
2022/06/19 07:01:22;;;;;;;12.15;2.20;;;;;;;16.99;75.52;101164.41;5223536;28;20053;-69
2022/06/19 07:03:55;;;;;;;11.10;1.73;;;;;;;16.86;71.92;101150.81;5227881;28;20369;-69
2022/06/19 07:06:28;;;;;;;9.57;1.65;;;;;;;16.87;75.05;101160.44;5233432;28;20602;-69
2022/06/19 07:09:00;;;;;;;11.23;1.80;;;;;;;16.75;71.71;101155.47;5232470;28;21433;-69
2022/06/19 07:11:40;;;;;;;8.15;1.45;;;;;;;16.74;70.65;101164.41;5230648;28;20034;-69
2022/06/19 07:14:12;;;;;;;6.30;1.77;;;;;;;16.64;73.28;101179.56;5226830;28;20033;-69
2022/06/19 07:16:44;;;;;;;7.50;1.65;;;;;;;16.47;72.78;101223.63;5234650;28;20033;-69
2022/06/19 07:19:15;;;;;;;9.38;1.45;;;;;;;16.47;71.39;101214.84;5234308;28;20037;-69
2022/06/19 07:21:46;;;;;;;7.72;1.58;;;;;;;16.37;72.95;101209.72;5236361;28;20476;-68
2022/06/19 07:24:17;;;;;;;8.32;1.88;;;;;;;16.23;75.82;101176.75;5212564;28;20025;-69
2022/06/19 07:26:49;;;;;;;10.82;2.30;;;;;;;16.13;83.73;101131.09;5230336;28;20036;-69
2022/06/19 07:29:20;;;;;;;13.55;2.90;;;;;;;15.94;89.18;101115.50;5232287;28;20021;-69
2022/06/19 07:31:53;;;;;;;8.45;2.28;;;;;;;15.76;97.03;101083.91;5231654;28;20502;-68
2022/06/19 07:34:24;;;;;;;6.05;1.90;;;;;;;15.70;96.22;101068.69;5232241;28;20423;-69
2022/06/19 07:36:56;;;;;;;10.27;2.15;;;;;;;15.56;100.00;101036.53;5225957;28;20026;-68
2022/06/19 07:39:27;;;;;;;8.48;1.83;;;;;;;15.39;100.00;101034.81;5228148;28;20025;-69
2022/06/19 07:41:59;;;;;;;13.23;2.63;;;;;;;15.46;100.00;101029.75;5207418;28;20029;-70
2022/06/19 07:44:31;;;;;;;9.27;2.10;;;;;;;15.37;100.00;101005.09;5224016;28;20064;-69
2022/06/19 07:50:09;;;;;;;8.10;2.13;;;;;;;15.35;100.00;101001.81;5232717;28;20037;-70
2022/06/19 07:52:43;;;;;;;8.80;2.75;;;;;;;15.50;100.00;101058.31;5230589;28;20028;-70
2022/06/19 07:55:21;;;;;;;6.03;2.00;;;;;;;15.48;100.00;101107.81;5228411;28;20034;-69
2022/06/19 07:57:54;;;;;;;7.95;2.00;;;;;;;15.62;100.00;101161.88;5228141;28;20156;-69
2022/06/19 08:00:32;;;;;;;8.60;2.40;;;;;;;15.78;100.00;101169.09;5225819;28;20030;-69
2022/06/19 08:03:05;;;;;;;9.63;2.00;;;;;;;15.73;100.00;101140.50;5226609;28;20448;-70
2022/06/19 08:05:38;;;;;;;12.90;2.77;;;;;;;15.86;100.00;101118.13;5227474;28;20049;-69
2022/06/19 08:08:36;;;;;;;7.38;1.95;;;;;;;16.12;100.00;101110.97;5227579;28;20295;-69
2022/06/19 08:11:07;;;;;;;9.50;2.47;;;;;;;15.80;100.00;101096.63;5224222;28;20112;-69
2022/06/19 08:13:39;;;;;;;12.15;2.10;;;;;;;15.76;100.00;101058.31;5225017;28;20026;-69
2022/06/19 08:16:10;;;;;;;11.23;2.25;;;;;;;15.86;100.00;101096.97;5218204;28;20053;-70
2022/06/19 08:18:42;;;;;;;9.02;2.20;;;;;;;15.75;100.00;101125.31;5232048;28;20045;-70
2022/06/19 08:21:13;;;;;;;9.52;2.28;;;;;;;15.93;100.00;101090.06;5227728;28;20018;-69
2022/06/19 08:23:44;;;;;;;11.98;2.63;;;;;;;16.00;100.00;101054.94;5228189;28;20124;-70
2022/06/19 08:26:16;;;;;;;11.77;2.40;;;;;;;16.00;100.00;101077.88;5233566;28;20033;-70
2022/06/19 08:31:31;;;;;;;10.55;2.20;;;;;;;16.01;100.00;101053.94;5231411;28;20037;-71
2022/06/19 08:34:03;;;;;;;6.63;2.10;;;;;;;15.96;100.00;101045.66;5230920;28;20617;-70
2022/06/19 08:36:36;;;;;;;8.88;2.75;;;;;;;16.19;100.00;101042.44;5225805;28;20041;-71
2022/06/19 08:39:12;;;;;;;9.90;2.08;;;;;;;16.12;100.00;101029.03;5226209;28;20633;-69
2022/06/19 08:41:58;;;;;;;13.23;2.50;;;;;;;16.10;100.00;101006.38;5223033;28;20030;-70
2022/06/19 08:44:47;;;;;;;9.70;2.60;;;;;;;16.14;100.00;100982.13;5205757;28;20494;-69
2022/06/19 08:47:18;;;;;;;12.75;2.72;;;;;;;16.04;100.00;100941.78;5222942;28;20026;-69
2022/06/19 08:49:59;;;;;;;13.50;2.33;;;;;;;16.14;100.00;100958.34;5220692;28;20064;-69
2022/06/19 08:52:51;;;;;;;8.30;2.25;;;;;;;16.18;100.00;100974.69;5222040;28;20134;-70
2022/06/19 08:55:36;;;;;;;11.63;2.75;;;;;;;15.97;100.00;100998.94;5225952;28;20036;-69
2022/06/19 08:58:25;;;;;;;11.32;2.60;;;;;;;16.02;100.00;100992.19;5223911;28;20028;-70
2022/06/19 09:01:02;;;;;;;8.50;2.38;;;;;;;16.07;100.00;100994.34;5225689;28;20031;-69
2022/06/19 09:07:21;;;;;;;9.60;2.47;;;;;;;16.19;100.00;101032.69;5221543;28;20037;-68
2022/06/19 09:10:01;;;;;;;12.50;2.60;;;;;;;16.49;100.00;101046.28;5179518;28;20056;-68
2022/06/19 09:13:09;;;;;;;13.30;2.92;;;;;;;16.85;100.00;101052.09;5225104;28;20088;-68
2022/06/19 09:15:46;;;;;;;7.95;2.25;;;;;;;16.96;100.00;101078.22;5225156;28;20904;-69
2022/06/19 09:18:39;;;;;;;7.53;2.47;;;;;;;17.34;100.00;101122.72;5224603;28;20049;-71
2022/06/19 09:21:27;;;;;;;9.30;2.43;;;;;;;17.01;100.00;101125.41;5227012;28;20510;-68
2022/06/19 09:24:16;;;;;;;8.45;2.25;;;;;;;17.25;100.00;101125.38;5225551;28;20044;-72
2022/06/19 09:26:56;;;;;;;7.50;2.17;;;;;;;17.26;100.00;101129.66;5223489;28;20036;-69
2022/06/19 09:29:35;;;;;;;8.23;2.63;;;;;;;17.23;100.00;101115.94;5192504;28;20033;-68
2022/06/19 09:32:25;;;;;;;8.70;2.08;;;;;;;17.05;100.00;101112.63;5225785;28;20117;-69
2022/06/19 09:35:04;;;;;;;6.57;1.85;;;;;;;17.28;100.00;101108.34;5211308;28;20084;-69
2022/06/19 09:37:50;;;;;;;8.50;2.38;;;;;;;17.55;100.00;101095.72;5221793;28;20035;-69
2022/06/19 09:40:31;;;;;;;8.93;2.55;;;;;;;17.59;100.00;101079.28;5225791;28;20025;-69
2022/06/19 09:43:14;;;;;;;8.48;2.20;;;;;;;17.70;100.00;101072.81;5225337;28;20025;-68
2022/06/19 09:45:57;;;;;;;5.57;2.13;;;;;;;17.83;100.00;101051.06;5222554;28;20503;-69
2022/06/19 09:48:35;;;;;;;9.27;2.88;;;;;;;17.95;100.00;101023.19;5226460;28;20543;-69
2022/06/19 09:51:24;;;;;;;8.77;2.13;;;;;;;18.15;100.00;101031.53;5225318;28;20408;-69
2022/06/19 09:54:04;;;;;;;7.50;1.70;;;;;;;18.16;100.00;101034.00;5221540;28;20063;-71
2022/06/19 09:56:53;;;;;;;10.23;2.30;;;;;;;18.22;100.00;101035.13;5221804;28;20053;-69
2022/06/19 09:59:36;;;;;;;7.88;2.28;;;;;;;17.85;100.00;101022.59;5226936;28;20744;-70
2022/06/19 10:02:16;;;;;;;6.63;2.25;;;;;;;18.05;100.00;101013.19;5220775;28;20580;-72
2022/06/19 10:05:08;;;;;;;7.65;1.70;;;;;;;18.07;100.00;101005.06;5226445;28;20060;-67
2022/06/19 10:07:44;;;;;;;9.18;2.55;;;;;;;17.98;100.00;101002.44;5224064;28;20129;-70
2022/06/19 10:10:29;;;;;;;10.20;2.53;;;;;;;18.24;100.00;100996.81;5227821;28;20041;-68
2022/06/19 10:13:05;;;;;;;7.00;2.10;;;;;;;18.53;100.00;100979.38;5228970;28;20033;-68
2022/06/19 10:15:37;;;;;;;7.60;2.30;;;;;;;18.58;100.00;100971.69;5220926;28;20025;-70
2022/06/19 10:18:24;;;;;;;12.70;3.13;;;;;;;18.67;100.00;100975.91;5226064;28;20044;-68
2022/06/19 10:21:09;;;;;;;6.82;2.28;;;;;;;18.79;100.00;100971.03;5224210;28;20108;-69
2022/06/19 10:24:04;;;;;;;5.25;1.90;;;;;;;18.99;100.00;100971.34;5221844;28;20044;-69
2022/06/19 10:26:52;;;;;;;8.02;1.90;;;;;;;19.07;100.00;100973.91;5220789;28;20037;-70
2022/06/19 10:29:37;;;;;;;8.73;2.22;;;;;;;19.03;100.00;100956.69;5229904;28;20029;-70
2022/06/19 10:32:15;;;;;;;8.23;1.75;;;;;;;19.16;100.00;100982.59;5220151;28;20021;-69
2022/06/19 10:35:15;;;;;;;5.43;1.73;;;;;;;19.36;98.80;100986.38;5219893;28;20033;-71
2022/06/19 10:38:07;;;;;;;8.07;2.25;;;;;;;19.29;94.61;100996.06;5220351;28;20703;-69
2022/06/19 10:41:03;;;;;;;6.95;1.50;;;;;;;19.49;88.10;100977.72;5221842;28;20097;-69
2022/06/19 10:43:49;;;;;;;4.63;1.58;;;;;;;19.51;83.45;100978.38;5222405;28;20030;-70
2022/06/19 10:46:24;;;;;;;5.13;1.52;;;;;;;19.68;83.95;100974.50;5221275;28;20021;-69
2022/06/19 10:48:58;;;;;;;4.63;1.50;;;;;;;19.78;78.30;100976.91;5217236;28;20041;-70
2022/06/19 10:51:41;;;;;;;4.10;1.23;;;;;;;19.98;76.58;100987.75;5225165;28;20064;-69
2022/06/19 10:54:23;;;;;;;;;;;;;;;20.42;77.48;101008.84;5226929;28;20496;-70
2022/06/19 10:57:22;;;;;;;5.00;1.35;;;;;;;20.16;75.73;101021.91;5223013;28;19925;-70
2022/06/19 10:59:54;;;;;;;4.47;1.20;;;;;;;19.91;68.25;101029.38;5226700;28;20056;-70
2022/06/19 11:05:45;;;;;;;4.20;1.35;;;;;;;20.20;74.41;101033.00;5224341;28;20029;-70
2022/06/19 11:08:19;;;;;;;6.25;1.67;;;;;;;20.12;72.79;101028.59;5225329;28;20525;-72
2022/06/19 11:10:57;;;;;;;6.00;1.45;;;;;;;20.44;72.53;101029.13;5219663;28;20084;-71
2022/06/19 11:13:56;;;;;;;5.55;1.38;;;;;;;20.91;72.11;101028.56;5222141;28;20551;-70
2022/06/19 11:16:31;;;;;;;5.88;1.77;;;;;;;21.19;71.21;101041.03;5217583;28;20148;-70
2022/06/19 11:19:03;;;;;;;6.18;1.83;;;;;;;20.96;66.75;101060.75;5217767;28;20091;-70
2022/06/19 11:21:34;;;;;;;4.37;1.70;;;;;;;21.00;69.71;101069.19;5211311;28;20646;-70
2022/06/19 11:24:26;;;;;;;4.50;1.93;;;;;;;21.26;70.91;101072.03;5223100;28;20079;-70
2022/06/19 11:26:58;;;;;;;3.45;1.25;;;;;;;21.10;73.20;101059.84;5220192;28;20509;-70
2022/06/19 11:29:30;;;;;;;4.63;1.38;;;;;;;21.21;65.73;101062.97;5222560;28;20075;-70
2022/06/19 11:32:09;;;;;;;4.30;1.50;;;;;;;21.22;65.07;101070.78;5223123;28;20477;-72
2022/06/19 11:34:44;;;;;;;5.30;1.52;;;;;;;21.11;65.78;101072.13;5224660;28;20033;-70
2022/06/19 11:37:37;;;;;;;5.70;1.58;;;;;;;21.55;68.13;101073.66;5219298;28;20041;-71
2022/06/19 11:40:33;;;;;;;4.55;1.58;;;;;;;21.65;70.51;101086.66;5222676;28;20504;-70
2022/06/19 11:43:20;;;;;;;4.95;1.50;;;;;;;21.65;65.54;101070.63;5220838;28;20022;-69
2022/06/19 11:46:05;;;;;;;5.43;1.60;;;;;;;21.86;68.60;101075.88;5222393;28;20423;-69
2022/06/19 11:48:36;;;;;;;3.80;1.67;;;;;;;21.80;66.93;101075.84;5220138;28;20057;-70
2022/06/19 11:51:21;;;;;;;6.57;2.03;;;;;;;21.99;66.74;101080.44;5222755;28;20104;-70
2022/06/19 11:53:57;;;;;;;8.43;2.28;;;;;;;22.03;65.36;101087.03;5225263;28;20030;-70
2022/06/19 11:56:36;;;;;;;6.47;2.13;;;;;;;22.24;65.83;101101.31;5230326;28;20072;-71
2022/06/19 11:59:44;;;;;;;5.93;1.92;;;;;;;22.45;65.55;101111.00;5227198;28;20028;-71
2022/06/19 12:02:24;;;;;;;5.35;1.60;;;;;;;22.30;64.51;101108.47;5227919;28;20025;-71
2022/06/19 12:04:59;;;;;;;4.55;1.63;;;;;;;22.14;61.77;101135.53;5231666;28;20057;-71
2022/06/19 12:07:35;;;;;;;6.38;2.25;;;;;;;21.93;65.85;101137.25;5233884;28;20021;-72
2022/06/19 12:10:26;;;;;;;9.35;1.80;;;;;;;21.82;64.29;101133.31;5225065;28;20650;-70
2022/06/19 12:13:00;;;;;;;7.22;2.00;;;;;;;21.75;63.82;101158.31;5228008;28;20084;-71
2022/06/19 12:15:36;;;;;;;5.32;2.17;;;;;;;22.14;69.09;101187.06;5228584;28;20029;-70